Time;durP1;ratioP1;P1;durP2;ratioP2;P2;SDS_P1;SDS_P2;PMS_P1;PMS_P2;Temp;Humidity;BMP_temperature;BMP_pressure;BME280_temperature;BME280_humidity;BME280_pressure;Samples;Min_cycle;Max_cycle;Signal;HPM_P1;HPM_P2
2022/11/10 00:02:06;;;;;;;30.30;15.10;;;;;;;;;;106913;1306;21757;-80
2022/11/10 00:04:51;;;;;;;30.20;14.70;;;;;;;;;;107057;1299;22042;-80
2022/11/10 00:07:37;;;;;;;33.70;16.40;;;;;;;;;;106909;1292;22071;-80
2022/11/10 00:10:22;;;;;;;37.80;17.10;;;;;;;;;;106777;1307;22148;-80
2022/11/10 00:13:08;;;;;;;37.20;16.70;;;;;;;;;;107113;1298;22045;-80
2022/11/10 00:18:58;;;;;;;33.90;15.80;;;;;;;;;;107167;1285;22746;-80
2022/11/10 00:21:43;;;;;;;34.80;16.90;;;;;;;;;;107133;1292;22088;-80
2022/11/10 00:24:29;;;;;;;32.00;16.50;;;;;;;;;;106848;1307;22166;-80
2022/11/10 00:27:15;;;;;;;33.00;15.90;;;;;;;;;;106920;1307;23173;-80
2022/11/10 00:30:01;;;;;;;32.50;16.10;;;;;;;;;;107125;1284;21709;-80
2022/11/10 00:32:47;;;;;;;30.60;15.50;;;;;;;;;;106930;1307;22672;-80
2022/11/10 00:35:33;;;;;;;30.40;15.10;;;;;;;;;;107131;1299;22033;-80
2022/11/10 00:38:18;;;;;;;31.40;15.50;;;;;;;;;;107147;1293;22656;-80
2022/11/10 00:41:04;;;;;;;30.30;14.70;;;;;;;;;;106922;1299;22062;-81
2022/11/10 00:43:49;;;;;;;32.20;15.30;;;;;;;;;;106907;1304;22075;-80
2022/11/10 00:46:35;;;;;;;33.80;16.00;;;;;;;;;;107167;1292;22089;-80
2022/11/10 00:49:20;;;;;;;33.60;16.30;;;;;;;;;;106938;1298;22055;-80
2022/11/10 00:52:06;;;;;;;34.20;15.70;;;;;;;;;;106879;1307;22172;-81
2022/11/10 00:54:52;;;;;;;30.10;14.30;;;;;;;;;;106837;1292;22926;-80
2022/11/10 00:57:37;;;;;;;28.70;14.80;;;;;;;;;;106875;1307;22457;-80
2022/11/10 01:00:23;;;;;;;31.20;14.40;;;;;;;;;;106860;1307;22074;-81
2022/11/10 01:03:13;;;;;;;34.40;16.80;;;;;;;;;;106877;1307;22132;-80
2022/11/10 01:06:03;;;;;;;32.10;15.60;;;;;;;;;;106769;1307;22105;-80
2022/11/10 01:08:48;;;;;;;33.50;16.10;;;;;;;;;;106882;1298;22080;-80
2022/11/10 01:11:33;;;;;;;31.80;16.40;;;;;;;;;;106861;1307;22152;-80
2022/11/10 01:14:19;;;;;;;29.60;15.10;;;;;;;;;;106804;1308;22103;-80
2022/11/10 01:17:04;;;;;;;35.20;17.30;;;;;;;;;;107044;1300;22052;-80
2022/11/10 01:19:51;;;;;;;33.10;16.80;;;;;;;;;;106894;1309;22754;-80
2022/11/10 01:22:36;;;;;;;34.70;15.60;;;;;;;;;;106883;1310;22079;-80
2022/11/10 01:25:23;;;;;;;33.80;16.00;;;;;;;;;;106812;1299;21701;-80
2022/11/10 01:28:09;;;;;;;32.30;15.60;;;;;;;;;;106783;1308;22209;-81
2022/11/10 01:30:59;;;;;;;32.50;15.60;;;;;;;;;;106759;1309;22089;-80
2022/11/10 01:33:44;;;;;;;34.20;15.90;;;;;;;;;;106766;1309;22150;-80
2022/11/10 01:36:29;;;;;;;31.20;15.30;;;;;;;;;;106858;1309;22884;-80
2022/11/10 01:39:15;;;;;;;31.00;14.60;;;;;;;;;;106825;1301;22012;-80
2022/11/10 01:42:01;;;;;;;32.90;16.30;;;;;;;;;;106803;1309;22071;-80
2022/11/10 01:45:05;;;;;;;31.10;15.30;;;;;;;;;;106870;1307;22384;-80
2022/11/10 01:47:53;;;;;;;31.80;15.30;;;;;;;;;;106753;1309;22050;-80
2022/11/10 01:50:40;;;;;;;31.10;15.50;;;;;;;;;;106754;1307;21916;-80
2022/11/10 01:53:27;;;;;;;30.30;15.40;;;;;;;;;;106671;1309;22028;-80
2022/11/10 01:56:14;;;;;;;28.00;14.10;;;;;;;;;;106772;1298;22114;-80
2022/11/10 01:59:04;;;;;;;32.10;15.30;;;;;;;;;;106916;1307;22092;-80
2022/11/10 02:01:51;;;;;;;31.70;15.10;;;;;;;;;;107130;1300;22008;-79
2022/11/10 02:04:38;;;;;;;30.20;15.20;;;;;;;;;;106808;1308;22042;-80
2022/11/10 02:07:24;;;;;;;32.50;14.60;;;;;;;;;;106756;1309;22859;-80
2022/11/10 02:10:16;;;;;;;29.30;14.10;;;;;;;;;;106781;1309;22115;-80
2022/11/10 02:13:01;;;;;;;30.60;14.00;;;;;;;;;;106649;1309;22653;-80
2022/11/10 02:15:49;;;;;;;26.70;12.50;;;;;;;;;;106637;1310;22754;-80
2022/11/10 02:18:37;;;;;;;27.20;13.90;;;;;;;;;;106717;1310;22080;-80
2022/11/10 02:21:24;;;;;;;26.20;13.60;;;;;;;;;;106720;1309;21922;-80
2022/11/10 02:24:11;;;;;;;25.50;13.60;;;;;;;;;;106703;1310;22065;-80
2022/11/10 02:26:58;;;;;;;26.10;13.80;;;;;;;;;;106702;1309;22070;-80
2022/11/10 02:29:45;;;;;;;31.10;13.80;;;;;;;;;;106737;1309;22739;-80
2022/11/10 02:32:31;;;;;;;26.40;13.10;;;;;;;;;;106742;1310;22680;-80
2022/11/10 02:35:18;;;;;;;27.20;13.80;;;;;;;;;;107030;1281;22660;-80
2022/11/10 02:38:05;;;;;;;26.70;12.70;;;;;;;;;;106681;1310;22088;-80
2022/11/10 02:40:52;;;;;;;23.10;12.00;;;;;;;;;;106738;1309;22044;-80
2022/11/10 02:43:39;;;;;;;24.60;12.80;;;;;;;;;;106716;1300;22806;-80
2022/11/10 02:46:26;;;;;;;28.10;13.60;;;;;;;;;;106719;1294;22093;-80
2022/11/10 02:49:13;;;;;;;27.00;12.20;;;;;;;;;;106722;1310;22105;-80
2022/11/10 02:52:00;;;;;;;26.50;12.90;;;;;;;;;;106709;1309;22137;-80
2022/11/10 02:54:47;;;;;;;26.40;12.00;;;;;;;;;;106740;1310;22066;-80
2022/11/10 02:57:34;;;;;;;25.50;12.80;;;;;;;;;;106721;1308;22853;-80
2022/11/10 03:00:21;;;;;;;26.10;12.20;;;;;;;;;;106665;1310;22071;-80
2022/11/10 03:03:08;;;;;;;26.30;12.50;;;;;;;;;;106748;1310;22062;-80
2022/11/10 03:05:54;;;;;;;25.90;12.60;;;;;;;;;;106739;1309;22646;-80
2022/11/10 03:08:42;;;;;;;27.90;13.00;;;;;;;;;;106718;1309;22086;-80
2022/11/10 03:11:29;;;;;;;26.50;13.30;;;;;;;;;;106680;1304;22061;-80
2022/11/10 03:21:26;;;;;;;23.60;11.60;;;;;;;;;;100471;1340;544764;-80
2022/11/10 03:24:11;;;;;;;24.00;10.90;;;;;;;;;;103450;1307;24238;-85
2022/11/10 03:26:57;;;;;;;21.90;11.10;;;;;;;;;;103525;1302;24312;-79
2022/11/10 03:29:42;;;;;;;22.90;10.60;;;;;;;;;;103502;1297;24391;-83
2022/11/10 03:32:27;;;;;;;20.50;9.90;;;;;;;;;;103257;1294;23038;-86
2022/11/10 03:35:13;;;;;;;18.90;10.20;;;;;;;;;;102578;1307;1195087;-85
2022/11/10 03:37:58;;;;;;;19.30;9.30;;;;;;;;;;103498;1307;25287;-82
2022/11/10 03:40:43;;;;;;;21.50;9.70;;;;;;;;;;103468;1304;23313;-84
2022/11/10 03:43:29;;;;;;;21.90;9.60;;;;;;;;;;103656;1304;22844;-85
2022/11/10 03:46:15;;;;;;;18.40;8.50;;;;;;;;;;103831;1292;22479;-87
2022/11/10 03:49:00;;;;;;;17.40;8.20;;;;;;;;;;103723;1299;23044;-80
2022/11/10 03:51:45;;;;;;;16.90;8.30;;;;;;;;;;103508;1307;25330;-84
2022/11/10 03:54:31;;;;;;;17.90;8.50;;;;;;;;;;103423;1307;22482;-87
2022/11/10 03:57:16;;;;;;;17.70;7.90;;;;;;;;;;103505;1285;22535;-85
2022/11/10 04:00:02;;;;;;;16.90;8.10;;;;;;;;;;103601;1299;23373;-80
2022/11/10 04:02:48;;;;;;;16.60;7.90;;;;;;;;;;103511;1306;24311;-83
2022/11/10 04:17:51;;;;;;;14.00;6.30;;;;;;;;;;103818;1291;22475;-82
2022/11/10 04:20:37;;;;;;;14.30;6.90;;;;;;;;;;103796;1303;22476;-86
2022/11/10 04:23:26;;;;;;;13.60;6.80;;;;;;;;;;103694;1304;26466;-87
2022/11/10 04:26:27;;;;;;;11.90;5.90;;;;;;;;;;103811;1304;22663;-87
2022/11/10 04:29:15;;;;;;;13.50;6.50;;;;;;;;;;103620;1304;25311;-79
2022/11/10 04:32:00;;;;;;;14.30;5.90;;;;;;;;;;103549;1307;25357;-81
2022/11/10 04:34:45;;;;;;;13.40;5.90;;;;;;;;;;103461;1294;22480;-86
2022/11/10 04:37:30;;;;;;;12.30;5.80;;;;;;;;;;103556;1291;22485;-80
2022/11/10 04:40:16;;;;;;;12.30;5.80;;;;;;;;;;103691;1299;25320;-80
2022/11/10 04:43:02;;;;;;;14.00;6.30;;;;;;;;;;103836;1304;22462;-80
2022/11/10 04:45:47;;;;;;;13.40;5.90;;;;;;;;;;103849;1298;24317;-81
2022/11/10 04:48:34;;;;;;;14.20;6.10;;;;;;;;;;103572;1303;22509;-84
2022/11/10 04:51:19;;;;;;;12.60;5.80;;;;;;;;;;103757;1304;25319;-85
2022/11/10 04:54:06;;;;;;;14.80;6.10;;;;;;;;;;103708;1300;25445;-81
2022/11/10 04:56:51;;;;;;;14.10;6.60;;;;;;;;;;103741;1298;22460;-81
2022/11/10 04:59:37;;;;;;;16.00;7.00;;;;;;;;;;103621;1306;22476;-82
2022/11/10 05:02:22;;;;;;;15.60;7.10;;;;;;;;;;103595;1304;22451;-82
2022/11/10 05:05:07;;;;;;;14.30;7.00;;;;;;;;;;103595;1298;22465;-87
2022/11/10 05:07:53;;;;;;;13.10;6.40;;;;;;;;;;103825;1289;24282;-84
2022/11/10 05:10:38;;;;;;;11.80;6.10;;;;;;;;;;103772;1304;22724;-82
2022/11/10 05:13:23;;;;;;;13.10;6.00;;;;;;;;;;103534;1304;25240;-83
2022/11/10 05:16:09;;;;;;;13.20;6.80;;;;;;;;;;103655;1289;22452;-82
2022/11/10 05:18:57;;;;;;;14.60;7.40;;;;;;;;;;103528;1303;25231;-84
2022/11/10 05:21:42;;;;;;;12.90;6.40;;;;;;;;;;103587;1304;25446;-82
2022/11/10 05:24:27;;;;;;;13.50;6.40;;;;;;;;;;103647;1304;24221;-85
2022/11/10 05:27:13;;;;;;;15.80;7.10;;;;;;;;;;103590;1304;25536;-83
2022/11/10 05:29:58;;;;;;;14.00;7.10;;;;;;;;;;103545;1304;22480;-87
2022/11/10 05:32:43;;;;;;;15.10;6.80;;;;;;;;;;103817;1303;24001;-82
2022/11/10 05:35:29;;;;;;;13.40;6.70;;;;;;;;;;103593;1304;22458;-87
2022/11/10 05:38:14;;;;;;;13.20;6.70;;;;;;;;;;103560;1304;24266;-84
2022/11/10 05:41:00;;;;;;;14.40;7.00;;;;;;;;;;103561;1304;22464;-87
2022/11/10 05:43:45;;;;;;;15.00;6.50;;;;;;;;;;103555;1307;22545;-85
2022/11/10 05:46:31;;;;;;;14.00;6.90;;;;;;;;;;103593;1298;21793;-86
2022/11/10 05:49:16;;;;;;;33.40;14.30;;;;;;;;;;103778;1299;22462;-83
2022/11/10 05:52:02;;;;;;;27.90;11.10;;;;;;;;;;103559;1304;22455;-82
2022/11/10 05:54:47;;;;;;;23.40;10.10;;;;;;;;;;103544;1285;26555;-84
2022/11/10 05:57:32;;;;;;;19.00;8.00;;;;;;;;;;103804;1283;22606;-82
2022/11/10 06:00:20;;;;;;;22.40;8.70;;;;;;;;;;103522;1306;24321;-87
2022/11/10 06:03:11;;;;;;;26.20;9.70;;;;;;;;;;103455;1301;22477;-81
2022/11/10 06:05:56;;;;;;;23.50;9.00;;;;;;;;;;103788;1307;22470;-87
2022/11/10 06:08:41;;;;;;;22.00;9.50;;;;;;;;;;103562;1306;22481;-86
2022/11/10 06:11:27;;;;;;;20.40;10.00;;;;;;;;;;103767;1307;22467;-83
2022/11/10 06:14:12;;;;;;;17.30;8.30;;;;;;;;;;103625;1306;24324;-81
2022/11/10 06:16:57;;;;;;;18.00;9.40;;;;;;;;;;103593;1305;22463;-86
2022/11/10 06:19:43;;;;;;;18.10;8.90;;;;;;;;;;103594;1306;25339;-81
2022/11/10 06:22:28;;;;;;;21.00;8.10;;;;;;;;;;103506;1301;25243;-80
2022/11/10 06:25:13;;;;;;;16.70;7.30;;;;;;;;;;103537;1306;24427;-82
2022/11/10 06:27:59;;;;;;;13.60;6.30;;;;;;;;;;103507;1307;22470;-81
2022/11/10 06:30:45;;;;;;;13.80;6.20;;;;;;;;;;103512;1303;22483;-85
2022/11/10 06:33:31;;;;;;;12.20;5.20;;;;;;;;;;103430;1306;22452;-87
2022/11/10 06:36:16;;;;;;;13.00;4.60;;;;;;;;;;103718;1305;22481;-80
2022/11/10 06:39:02;;;;;;;16.60;6.20;;;;;;;;;;103755;1304;22479;-83
2022/11/10 06:41:48;;;;;;;14.70;5.10;;;;;;;;;;103487;1307;23214;-81
2022/11/10 06:44:33;;;;;;;13.60;5.00;;;;;;;;;;103256;1306;23532;-80
2022/11/10 06:47:19;;;;;;;15.90;5.60;;;;;;;;;;103491;1306;22593;-85
2022/11/10 06:50:04;;;;;;;16.70;4.80;;;;;;;;;;103441;1306;22591;-86
2022/11/10 06:52:56;;;;;;;11.80;4.10;;;;;;;;;;103527;1307;23887;-85
2022/11/10 06:55:41;;;;;;;15.40;5.20;;;;;;;;;;103502;1307;22456;-87
2022/11/10 06:58:27;;;;;;;12.20;4.40;;;;;;;;;;103566;1307;24527;-83
2022/11/10 07:01:12;;;;;;;18.20;5.10;;;;;;;;;;103762;1288;26585;-81
2022/11/10 07:03:57;;;;;;;13.80;4.60;;;;;;;;;;103593;1307;22535;-83
2022/11/10 07:06:44;;;;;;;15.50;4.60;;;;;;;;;;103468;1305;23233;-80
2022/11/10 07:09:30;;;;;;;17.10;4.90;;;;;;;;;;103509;1307;24268;-85
2022/11/10 07:12:15;;;;;;;12.40;4.20;;;;;;;;;;103487;1291;22845;-78
2022/11/10 07:15:01;;;;;;;16.30;4.50;;;;;;;;;;103551;1305;22516;-79
2022/11/10 07:17:46;;;;;;;11.70;4.10;;;;;;;;;;103559;1307;22487;-85
2022/11/10 07:20:31;;;;;;;12.00;4.30;;;;;;;;;;103597;1307;24219;-79
2022/11/10 07:23:17;;;;;;;16.70;5.00;;;;;;;;;;103584;1297;22482;-80
2022/11/10 07:26:02;;;;;;;11.30;4.40;;;;;;;;;;103588;1298;22716;-80
2022/11/10 07:28:48;;;;;;;13.80;4.00;;;;;;;;;;103529;1306;22631;-85
2022/11/10 07:31:33;;;;;;;13.30;4.20;;;;;;;;;;103500;1304;25295;-80
2022/11/10 07:34:19;;;;;;;11.40;3.60;;;;;;;;;;103726;1307;23982;-80
2022/11/10 07:37:04;;;;;;;11.50;3.60;;;;;;;;;;103473;1285;24430;-85
2022/11/10 07:39:50;;;;;;;9.00;3.50;;;;;;;;;;103577;1301;24308;-81
2022/11/10 07:42:39;;;;;;;10.10;3.60;;;;;;;;;;103393;1290;22482;-82
2022/11/10 07:45:25;;;;;;;11.10;3.70;;;;;;;;;;103392;1282;22465;-83
2022/11/10 07:48:11;;;;;;;10.50;3.90;;;;;;;;;;103506;1304;24172;-83
2022/11/10 07:50:56;;;;;;;12.50;3.40;;;;;;;;;;103792;1304;25316;-84
2022/11/10 07:53:42;;;;;;;8.30;3.30;;;;;;;;;;103826;1304;25266;-82
2022/11/10 07:56:27;;;;;;;10.00;3.00;;;;;;;;;;103546;1304;22469;-82
2022/11/10 07:59:13;;;;;;;12.10;3.80;;;;;;;;;;103564;1304;22992;-79
2022/11/10 08:01:58;;;;;;;10.90;3.40;;;;;;;;;;103801;1294;25387;-80
2022/11/10 08:04:43;;;;;;;11.40;3.00;;;;;;;;;;103783;1304;24238;-85
2022/11/10 08:07:29;;;;;;;11.30;2.70;;;;;;;;;;103573;1304;22459;-85
2022/11/10 08:10:14;;;;;;;9.70;2.40;;;;;;;;;;103550;1298;24430;-86
2022/11/10 08:13:01;;;;;;;12.50;2.70;;;;;;;;;;103825;1304;22466;-80
2022/11/10 08:15:46;;;;;;;12.00;2.40;;;;;;;;;;103580;1304;22499;-84
2022/11/10 08:18:31;;;;;;;9.20;2.50;;;;;;;;;;103732;1304;25351;-84
2022/11/10 08:21:17;;;;;;;8.60;2.60;;;;;;;;;;103608;1304;22474;-83
2022/11/10 08:24:02;;;;;;;9.40;2.40;;;;;;;;;;103442;1306;22492;-82
2022/11/10 08:26:48;;;;;;;11.00;2.10;;;;;;;;;;103496;1306;22495;-82
2022/11/10 08:29:34;;;;;;;9.20;2.30;;;;;;;;;;103525;1298;22710;-82
2022/11/10 08:32:20;;;;;;;12.00;2.00;;;;;;;;;;103552;1301;23877;-84
2022/11/10 08:35:05;;;;;;;7.00;2.10;;;;;;;;;;103403;1287;22460;-82
2022/11/10 08:37:51;;;;;;;8.60;2.30;;;;;;;;;;103439;1304;22616;-84
2022/11/10 08:40:37;;;;;;;10.00;2.10;;;;;;;;;;103548;1299;25302;-84
2022/11/10 08:43:23;;;;;;;11.10;2.20;;;;;;;;;;103601;1298;23021;-80
2022/11/10 08:46:08;;;;;;;11.20;2.30;;;;;;;;;;103792;1306;22462;-85
2022/11/10 08:48:53;;;;;;;8.70;2.00;;;;;;;;;;103810;1305;22462;-79
2022/11/10 08:51:39;;;;;;;10.00;1.60;;;;;;;;;;103764;1307;24301;-80
2022/11/10 08:54:24;;;;;;;9.80;1.60;;;;;;;;;;103605;1307;24002;-81
2022/11/10 08:57:09;;;;;;;6.70;1.70;;;;;;;;;;103554;1307;22496;-79
2022/11/10 08:59:55;;;;;;;8.70;1.40;;;;;;;;;;103515;1307;24796;-83
2022/11/10 09:02:40;;;;;;;6.20;1.40;;;;;;;;;;103544;1307;22463;-86
2022/11/10 09:05:25;;;;;;;8.40;1.70;;;;;;;;;;103455;1311;24241;-80
2022/11/10 09:08:11;;;;;;;10.40;1.70;;;;;;;;;;103579;1305;25232;-84
2022/11/10 09:10:56;;;;;;;10.00;1.70;;;;;;;;;;103795;1307;22593;-82
2022/11/10 09:13:41;;;;;;;6.60;1.50;;;;;;;;;;103612;1306;22485;-82
2022/11/10 09:16:27;;;;;;;5.70;1.30;;;;;;;;;;103822;1307;24214;-84
2022/11/10 09:19:12;;;;;;;7.30;1.30;;;;;;;;;;103498;1307;22659;-81
2022/11/10 09:21:57;;;;;;;7.50;1.60;;;;;;;;;;103479;1306;22596;-84
2022/11/10 09:24:42;;;;;;;9.50;1.90;;;;;;;;;;103535;1306;25275;-80
2022/11/10 09:27:28;;;;;;;7.60;1.50;;;;;;;;;;103561;1305;22542;-86
2022/11/10 09:30:13;;;;;;;7.80;1.50;;;;;;;;;;103478;1306;25392;-80
2022/11/10 09:32:59;;;;;;;7.60;1.40;;;;;;;;;;103542;1306;22845;-82
2022/11/10 09:35:44;;;;;;;8.40;1.50;;;;;;;;;;103442;1307;22473;-83
2022/11/10 09:38:30;;;;;;;10.60;1.90;;;;;;;;;;103491;1306;22510;-82
2022/11/10 09:41:16;;;;;;;8.40;1.50;;;;;;;;;;103527;1307;23977;-80
2022/11/10 09:44:04;;;;;;;9.70;1.90;;;;;;;;;;103580;1307;24154;-82
2022/11/10 09:46:53;;;;;;;7.10;1.50;;;;;;;;;;103512;1297;23211;-87
2022/11/10 09:49:47;;;;;;;8.70;1.60;;;;;;;;;;103466;1306;23891;-83
2022/11/10 09:52:34;;;;;;;7.10;1.40;;;;;;;;;;103509;1306;25415;-81
2022/11/10 09:55:25;;;;;;;9.00;1.50;;;;;;;;;;103534;1306;21748;-84
2022/11/10 09:58:12;;;;;;;8.50;1.50;;;;;;;;;;103521;1306;22470;-85
2022/11/10 10:01:21;;;;;;;7.40;1.40;;;;;;;;;;103564;1305;23116;-81
2022/11/10 10:04:06;;;;;;;8.10;1.60;;;;;;;;;;102823;1314;26482;-83
2022/11/10 10:07:04;;;;;;;10.40;2.00;;;;;;;;;;102804;1313;22576;-80
2022/11/10 10:10:01;;;;;;;9.20;1.80;;;;;;;;;;102690;1304;22634;-84
2022/11/10 10:13:05;;;;;;;8.20;1.60;;;;;;;;;;102919;1312;25690;-82
2022/11/10 10:15:50;;;;;;;9.70;1.40;;;;;;;;;;103016;1313;24547;-85
2022/11/10 10:18:38;;;;;;;6.90;1.30;;;;;;;;;;102969;1310;22474;-83
2022/11/10 10:21:30;;;;;;;7.40;1.40;;;;;;;;;;102976;1312;22470;-82
2022/11/10 10:24:18;;;;;;;8.00;1.30;;;;;;;;;;102955;1312;25616;-82
2022/11/10 10:27:05;;;;;;;8.00;1.30;;;;;;;;;;103006;1312;22509;-82
2022/11/10 10:29:50;;;;;;;8.70;1.50;;;;;;;;;;103028;1286;24238;-79
2022/11/10 10:32:36;;;;;;;8.90;1.70;;;;;;;;;;103013;1313;24244;-82
2022/11/10 10:35:21;;;;;;;9.40;1.80;;;;;;;;;;102997;1312;25653;-86
2022/11/10 10:38:15;;;;;;;7.50;1.50;;;;;;;;;;102979;1313;23239;-86
2022/11/10 10:41:08;;;;;;;7.40;1.80;;;;;;;;;;103139;1303;22519;-83
2022/11/10 10:43:56;;;;;;;9.70;2.20;;;;;;;;;;103576;1307;22478;-82
2022/11/10 10:46:43;;;;;;;9.60;2.10;;;;;;;;;;103522;1297;22476;-87
2022/11/10 10:49:32;;;;;;;9.40;1.90;;;;;;;;;;103543;1307;25381;-82
2022/11/10 10:52:23;;;;;;;9.50;2.00;;;;;;;;;;103523;1304;24217;-85
2022/11/10 10:55:11;;;;;;;9.60;1.50;;;;;;;;;;103555;1310;25382;-80
2022/11/10 10:58:00;;;;;;;11.50;2.70;;;;;;;;;;103421;1310;22483;-79
2022/11/10 11:01:06;;;;;;;11.20;1.80;;;;;;;;;;103438;1298;22475;-80
2022/11/10 11:03:51;;;;;;;7.70;1.40;;;;;;;;;;103525;1307;22471;-84
2022/11/10 11:06:37;;;;;;;8.70;1.50;;;;;;;;;;103495;1306;25242;-86
2022/11/10 11:09:27;;;;;;;7.70;1.80;;;;;;;;;;103595;1307;22482;-86
2022/11/10 11:12:13;;;;;;;7.30;1.30;;;;;;;;;;103546;1288;22464;-85
2022/11/10 11:15:20;;;;;;;10.00;1.60;;;;;;;;;;103399;1310;24309;-85
2022/11/10 11:18:16;;;;;;;8.10;1.80;;;;;;;;;;103433;1308;22476;-81
2022/11/10 11:21:07;;;;;;;5.70;1.50;;;;;;;;;;103568;1313;24364;-80
2022/11/10 11:23:52;;;;;;;10.30;2.50;;;;;;;;;;103499;1306;25309;-80
2022/11/10 11:26:38;;;;;;;9.50;1.60;;;;;;;;;;103494;1298;22889;-84
2022/11/10 11:29:23;;;;;;;8.70;1.50;;;;;;;;;;103545;1298;22536;-83
2022/11/10 11:32:12;;;;;;;9.50;1.60;;;;;;;;;;103529;1306;25301;-82
2022/11/10 11:35:06;;;;;;;7.40;1.40;;;;;;;;;;103479;1292;23895;-82
2022/11/10 11:38:11;;;;;;;6.10;1.20;;;;;;;;;;103488;1307;25245;-80
2022/11/10 11:40:56;;;;;;;10.70;1.90;;;;;;;;;;103549;1313;25313;-83
2022/11/10 11:43:45;;;;;;;8.40;1.70;;;;;;;;;;103511;1302;23074;-80
2022/11/10 11:46:38;;;;;;;8.70;1.70;;;;;;;;;;103555;1306;25452;-83
2022/11/10 11:49:24;;;;;;;9.20;1.50;;;;;;;;;;103492;1306;22562;-81
2022/11/10 11:52:17;;;;;;;8.70;1.50;;;;;;;;;;103532;1306;22594;-80
2022/11/10 11:55:06;;;;;;;10.40;1.90;;;;;;;;;;103523;1306;25922;-84
2022/11/10 11:58:18;;;;;;;10.30;1.70;;;;;;;;;;103505;1306;22476;-85
2022/11/10 12:01:25;;;;;;;8.40;1.50;;;;;;;;;;103493;1307;22468;-84
2022/11/10 12:04:13;;;;;;;6.40;1.50;;;;;;;;;;103543;1305;25333;-84
2022/11/10 12:07:18;;;;;;;8.40;1.80;;;;;;;;;;103602;1306;22498;-81
2022/11/10 12:10:10;;;;;;;5.20;1.50;;;;;;;;;;103457;1306;22485;-84
2022/11/10 12:13:03;;;;;;;12.70;2.20;;;;;;;;;;103560;1306;22467;-79
2022/11/10 12:15:54;;;;;;;8.90;1.50;;;;;;;;;;103482;1307;22463;-78
2022/11/10 12:18:52;;;;;;;10.00;1.90;;;;;;;;;;103505;1307;23596;-83
2022/11/10 12:21:50;;;;;;;8.30;1.80;;;;;;;;;;103452;1307;22489;-82
2022/11/10 12:24:36;;;;;;;7.20;1.50;;;;;;;;;;103455;1304;22473;-84
2022/11/10 12:27:27;;;;;;;7.70;1.30;;;;;;;;;;103481;1306;22468;-85
2022/11/10 12:30:15;;;;;;;9.90;2.30;;;;;;;;;;103564;1295;24029;-87
2022/11/10 12:33:04;;;;;;;10.70;1.80;;;;;;;;;;103515;1306;24232;-81
2022/11/10 12:35:50;;;;;;;7.10;1.40;;;;;;;;;;103488;1289;22472;-85
2022/11/10 12:38:46;;;;;;;6.70;1.40;;;;;;;;;;103499;1306;25353;-83
2022/11/10 12:41:51;;;;;;;8.20;1.80;;;;;;;;;;103510;1299;22731;-87
2022/11/10 12:44:53;;;;;;;7.70;1.50;;;;;;;;;;103477;1306;24237;-81
2022/11/10 12:47:41;;;;;;;9.20;1.90;;;;;;;;;;103589;1306;24532;-85
2022/11/10 12:50:33;;;;;;;8.20;1.50;;;;;;;;;;103589;1306;24350;-83
2022/11/10 12:53:23;;;;;;;9.70;1.70;;;;;;;;;;103551;1303;23046;-81
2022/11/10 12:56:13;;;;;;;7.70;1.60;;;;;;;;;;103461;1306;24229;-84
2022/11/10 12:59:17;;;;;;;8.90;1.70;;;;;;;;;;103521;1307;22602;-85
2022/11/10 13:02:12;;;;;;;8.30;1.50;;;;;;;;;;103592;1306;25344;-81
2022/11/10 13:05:24;;;;;;;7.80;1.70;;;;;;;;;;103351;1274;24352;-80
2022/11/10 13:08:12;;;;;;;6.40;1.40;;;;;;;;;;103758;1291;22520;-86
2022/11/10 13:11:04;;;;;;;7.90;1.70;;;;;;;;;;103469;1306;22476;-86
2022/11/10 13:13:57;;;;;;;10.30;2.00;;;;;;;;;;103650;1282;22465;-85
2022/11/10 13:16:46;;;;;;;8.50;2.30;;;;;;;;;;103757;1283;22437;-81
2022/11/10 13:19:32;;;;;;;8.70;2.00;;;;;;;;;;103740;1288;24296;-82
2022/11/10 13:22:35;;;;;;;8.40;1.70;;;;;;;;;;103817;1304;22455;-84
2022/11/10 13:25:36;;;;;;;8.00;1.40;;;;;;;;;;103794;1304;25801;-85
2022/11/10 13:28:48;;;;;;;8.80;1.80;;;;;;;;;;103790;1296;24309;-82
2022/11/10 13:31:37;;;;;;;8.20;1.30;;;;;;;;;;103932;1288;25317;-84
2022/11/10 13:34:29;;;;;;;9.90;1.40;;;;;;;;;;103516;1282;23846;-84
2022/11/10 13:37:33;;;;;;;7.70;1.40;;;;;;;;;;103754;1288;23311;-82
2022/11/10 13:40:25;;;;;;;8.80;1.60;;;;;;;;;;103677;1304;22674;-84
2022/11/10 13:43:21;;;;;;;6.20;1.50;;;;;;;;;;103477;1282;22531;-81
2022/11/10 13:46:06;;;;;;;6.60;1.40;;;;;;;;;;103641;1289;22414;-82
2022/11/10 13:49:03;;;;;;;7.20;1.40;;;;;;;;;;103781;1280;22471;-80
2022/11/10 13:52:04;;;;;;;11.50;1.60;;;;;;;;;;103797;1285;24233;-81
2022/11/10 13:54:53;;;;;;;6.10;1.30;;;;;;;;;;103833;1282;22461;-80
2022/11/10 13:57:39;;;;;;;8.10;1.70;;;;;;;;;;103788;1280;22488;-85
2022/11/10 14:00:27;;;;;;;8.30;1.80;;;;;;;;;;103786;1286;22462;-81
2022/11/10 14:03:52;;;;;;;9.20;1.90;;;;;;;;;;103742;1275;22594;-79
2022/11/10 14:06:39;;;;;;;7.20;1.30;;;;;;;;;;103142;1300;24312;-80
2022/11/10 14:09:30;;;;;;;5.60;1.30;;;;;;;;;;103065;1288;25288;-80
2022/11/10 14:12:19;;;;;;;6.50;1.60;;;;;;;;;;103292;1294;22555;-80
2022/11/10 14:15:11;;;;;;;8.60;1.50;;;;;;;;;;103137;1286;22457;-79
2022/11/10 14:17:57;;;;;;;6.00;1.40;;;;;;;;;;103009;1289;23039;-79
2022/11/10 14:20:44;;;;;;;9.30;1.60;;;;;;;;;;102969;1288;22465;-86
2022/11/10 14:23:47;;;;;;;8.20;1.80;;;;;;;;;;103017;1290;22861;-87
2022/11/10 14:26:43;;;;;;;6.40;1.50;;;;;;;;;;102983;1295;22660;-79
2022/11/10 14:29:39;;;;;;;8.80;1.70;;;;;;;;;;103481;1310;22596;-79
2022/11/10 14:32:25;;;;;;;9.00;1.40;;;;;;;;;;103629;1310;22485;-86
2022/11/10 14:35:19;;;;;;;9.00;1.40;;;;;;;;;;103249;1310;24589;-80
2022/11/10 14:38:05;;;;;;;7.50;1.60;;;;;;;;;;103582;1304;22579;-84
2022/11/10 14:40:55;;;;;;;7.10;1.50;;;;;;;;;;103818;1288;22540;-86
2022/11/10 14:43:40;;;;;;;9.70;1.60;;;;;;;;;;103773;1299;24307;-86
2022/11/10 14:46:26;;;;;;;8.70;1.50;;;;;;;;;;103714;1304;25247;-80
2022/11/10 14:49:11;;;;;;;7.80;1.60;;;;;;;;;;103570;1306;22468;-82
2022/11/10 14:51:58;;;;;;;8.20;1.70;;;;;;;;;;103549;1304;24313;-87
2022/11/10 14:54:45;;;;;;;9.20;1.60;;;;;;;;;;103764;1299;25229;-84
2022/11/10 14:57:30;;;;;;;7.90;1.90;;;;;;;;;;103798;1304;22667;-85
2022/11/10 15:00:17;;;;;;;12.90;3.10;;;;;;;;;;103811;1304;25328;-80
2022/11/10 15:03:03;;;;;;;11.20;3.10;;;;;;;;;;103567;1304;22484;-86
2022/11/10 15:05:49;;;;;;;12.30;3.10;;;;;;;;;;103536;1304;22451;-86
2022/11/10 15:08:34;;;;;;;10.70;2.20;;;;;;;;;;103722;1304;25340;-82
2022/11/10 15:11:39;;;;;;;12.00;1.60;;;;;;;;;;103731;1304;21798;-84
2022/11/10 15:14:41;;;;;;;8.80;1.50;;;;;;;;;;103637;1304;22482;-79
2022/11/10 15:17:44;;;;;;;8.70;1.60;;;;;;;;;;103466;1303;22478;-84
2022/11/10 15:20:35;;;;;;;9.30;1.80;;;;;;;;;;103651;1304;22527;-84
2022/11/10 15:23:22;;;;;;;10.10;1.90;;;;;;;;;;103787;1304;23087;-81
2022/11/10 15:26:18;;;;;;;8.80;1.80;;;;;;;;;;103547;1304;22470;-82
2022/11/10 15:29:03;;;;;;;9.30;1.70;;;;;;;;;;103550;1306;25453;-86
2022/11/10 15:31:50;;;;;;;9.40;2.20;;;;;;;;;;103565;1306;25430;-81
2022/11/10 15:34:40;;;;;;;10.80;2.20;;;;;;;;;;102751;1306;1360997;-82
2022/11/10 15:37:27;;;;;;;8.50;2.20;;;;;;;;;;103571;1306;22523;-79
2022/11/10 15:40:32;;;;;;;8.80;2.40;;;;;;;;;;103915;1304;25383;-82
2022/11/10 15:43:20;;;;;;;13.20;3.40;;;;;;;;;;103741;1304;22478;-81
2022/11/10 15:46:13;;;;;;;15.40;5.10;;;;;;;;;;103622;1301;22472;-80
2022/11/10 15:48:59;;;;;;;16.40;5.10;;;;;;;;;;103808;1286;22460;-82
2022/11/10 15:51:44;;;;;;;19.00;5.30;;;;;;;;;;103749;1288;23302;-84
2022/11/10 15:54:31;;;;;;;16.60;4.70;;;;;;;;;;103557;1284;22476;-81
2022/11/10 15:57:18;;;;;;;15.60;4.40;;;;;;;;;;103565;1280;22485;-79
2022/11/10 16:00:04;;;;;;;13.10;4.60;;;;;;;;;;103654;1282;22685;-84
2022/11/10 16:02:49;;;;;;;12.20;4.30;;;;;;;;;;103555;1283;22519;-80
2022/11/10 16:05:38;;;;;;;14.30;6.10;;;;;;;;;;103734;1279;22702;-79
2022/11/10 16:08:25;;;;;;;17.60;5.00;;;;;;;;;;103621;1288;24499;-77
2022/11/10 16:11:18;;;;;;;11.60;3.40;;;;;;;;;;103596;1304;24379;-79
2022/11/10 16:14:04;;;;;;;13.20;4.30;;;;;;;;;;103646;1288;22471;-79
2022/11/10 16:16:51;;;;;;;17.70;6.50;;;;;;;;;;103521;1275;22722;-79
2022/11/10 16:19:37;;;;;;;17.40;6.30;;;;;;;;;;103447;1292;22481;-80
2022/11/10 16:22:22;;;;;;;15.20;6.00;;;;;;;;;;103448;1283;22636;-79
2022/11/10 16:25:08;;;;;;;13.20;4.20;;;;;;;;;;103463;1289;22478;-79
2022/11/10 16:27:55;;;;;;;12.90;4.60;;;;;;;;;;103506;1281;25381;-79
2022/11/10 16:30:41;;;;;;;13.60;4.10;;;;;;;;;;103385;1304;22474;-82
2022/11/10 16:33:27;;;;;;;13.60;4.30;;;;;;;;;;103484;1305;24416;-81
2022/11/10 16:36:23;;;;;;;17.60;6.20;;;;;;;;;;103724;1282;22417;-86
2022/11/10 16:39:14;;;;;;;16.70;6.50;;;;;;;;;;103471;1307;24424;-79
2022/11/10 16:41:59;;;;;;;18.50;7.40;;;;;;;;;;103702;1282;25348;-82
2022/11/10 16:44:45;;;;;;;18.00;7.20;;;;;;;;;;103786;1306;22477;-83